Time;durP1;ratioP1;P1;durP2;ratioP2;P2;SDS_P1;SDS_P2;PMS_P1;PMS_P2;Temp;Humidity;BMP_temperature;BMP_pressure;BME280_temperature;BME280_humidity;BME280_pressure;Samples;Min_cycle;Max_cycle;Signal;HPM_P1;HPM_P2
2022/06/10 00:01:18;;;;;;;9.93;8.60;;;;;;;;;;5002286;28;20022;-72
2022/06/10 00:03:44;;;;;;;9.38;7.55;;;;;;;;;;5014428;28;20395;-71
2022/06/10 00:06:11;;;;;;;9.25;7.93;;;;;;;;;;5012316;28;20479;-71
2022/06/10 00:08:39;;;;;;;10.20;8.60;;;;;;;;;;5014122;28;20034;-75
2022/06/10 00:11:07;;;;;;;10.68;8.80;;;;;;;;;;5011812;28;20104;-73
2022/06/10 00:13:37;;;;;;;9.77;8.02;;;;;;;;;;5010744;28;20088;-74
2022/06/10 00:16:04;;;;;;;10.65;7.43;;;;;;;;;;5011894;28;20509;-74
2022/06/10 00:18:30;;;;;;;9.88;8.73;;;;;;;;;;5012379;28;20382;-74
2022/06/10 00:21:02;;;;;;;8.75;7.50;;;;;;;;;;5010521;28;20112;-73
2022/06/10 00:23:28;;;;;;;9.98;8.25;;;;;;;;;;4994469;28;20494;-73
2022/06/10 00:25:55;;;;;;;10.13;7.38;;;;;;;;;;5018085;28;20101;-76
2022/06/10 00:28:21;;;;;;;8.75;7.28;;;;;;;;;;4995808;28;20084;-74
2022/06/10 00:30:48;;;;;;;10.07;8.00;;;;;;;;;;4993609;28;20065;-74
2022/06/10 00:33:14;;;;;;;10.48;7.45;;;;;;;;;;5011034;28;20029;-73
2022/06/10 00:35:40;;;;;;;10.57;7.97;;;;;;;;;;5011975;28;20030;-74
2022/06/10 00:38:14;;;;;;;11.73;8.57;;;;;;;;;;5016108;28;20487;-75
2022/06/10 00:40:42;;;;;;;9.50;8.57;;;;;;;;;;4994672;28;20030;-74
2022/06/10 00:43:16;;;;;;;10.75;8.70;;;;;;;;;;4996128;28;20069;-75
2022/06/10 00:45:48;;;;;;;9.25;8.25;;;;;;;;;;5006329;28;20068;-73
2022/06/10 00:48:16;;;;;;;10.90;8.95;;;;;;;;;;5011245;28;20034;-73
2022/06/10 00:50:43;;;;;;;9.05;8.15;;;;;;;;;;5012416;28;20022;-73
2022/06/10 00:53:11;;;;;;;9.05;8.15;;;;;;;;;;5009530;28;20068;-73
2022/06/10 00:55:37;;;;;;;9.25;7.80;;;;;;;;;;5011559;28;20022;-74
2022/06/10 00:58:36;;;;;;;12.70;8.38;;;;;;;;;;5016647;28;20539;-74
2022/06/10 01:01:06;;;;;;;8.63;7.72;;;;;;;;;;4952164;28;20031;-73
2022/06/10 01:03:35;;;;;;;9.30;7.53;;;;;;;;;;4963889;28;20489;-76
2022/06/10 01:06:01;;;;;;;10.57;8.10;;;;;;;;;;4942538;29;20513;-73
2022/06/10 01:08:28;;;;;;;8.52;7.40;;;;;;;;;;4953050;28;20047;-73
2022/06/10 01:11:07;;;;;;;11.43;7.82;;;;;;;;;;4957805;28;20039;-72
2022/06/10 01:13:33;;;;;;;11.40;7.97;;;;;;;;;;4951109;28;20063;-76
2022/06/10 01:16:17;;;;;;;12.52;7.75;;;;;;;;;;4954288;28;20047;-73
2022/06/10 01:18:59;;;;;;;11.07;8.27;;;;;;;;;;4949671;28;20039;-73
2022/06/10 01:21:37;;;;;;;10.02;9.10;;;;;;;;;;4965274;28;20039;-74
2022/06/10 01:24:16;;;;;;;10.40;9.40;;;;;;;;;;4973289;28;20074;-76
2022/06/10 01:29:36;;;;;;;11.60;8.77;;;;;;;;;;4955550;28;20046;-75
2022/06/10 01:32:05;;;;;;;11.80;8.88;;;;;;;;;;4967860;28;20039;-74
2022/06/10 01:37:40;;;;;;;12.48;9.13;;;;;;;;;;4991291;28;20033;-73
2022/06/10 01:40:35;;;;;;;11.52;8.85;;;;;;;;;;5015572;28;20033;-74
2022/06/10 01:43:27;;;;;;;11.57;9.25;;;;;;;;;;4914214;29;20048;-74
2022/06/10 01:46:25;;;;;;;10.63;8.90;;;;;;;;;;4918941;29;20167;-76
2022/06/10 01:48:54;;;;;;;11.25;9.85;;;;;;;;;;4875432;29;20099;-74
2022/06/10 01:51:30;;;;;;;11.70;10.50;;;;;;;;;;4877853;29;20040;-72
2022/06/10 01:54:06;;;;;;;15.05;10.55;;;;;;;;;;4876188;29;20053;-73
2022/06/10 01:56:35;;;;;;;13.85;10.82;;;;;;;;;;4878554;29;20091;-74
2022/06/10 01:59:01;;;;;;;13.05;10.60;;;;;;;;;;4878433;29;20112;-74
2022/06/10 02:01:38;;;;;;;12.30;11.05;;;;;;;;;;4881436;29;20771;-75
2022/06/10 02:04:08;;;;;;;14.82;10.05;;;;;;;;;;4861868;29;20040;-74
2022/06/10 02:06:39;;;;;;;14.02;10.35;;;;;;;;;;4878559;29;20029;-73
2022/06/10 02:09:07;;;;;;;11.73;10.45;;;;;;;;;;4882141;29;20056;-74
2022/06/10 02:11:37;;;;;;;12.43;10.50;;;;;;;;;;4863818;29;20060;-74
2022/06/10 02:14:07;;;;;;;12.30;10.98;;;;;;;;;;4876659;29;20131;-74
2022/06/10 02:16:36;;;;;;;12.70;11.35;;;;;;;;;;4878041;29;20060;-74
2022/06/10 02:19:17;;;;;;;14.57;11.55;;;;;;;;;;4921529;28;20444;-72
2022/06/10 02:21:54;;;;;;;14.20;11.35;;;;;;;;;;4992545;28;20037;-73
2022/06/10 02:24:20;;;;;;;13.40;11.20;;;;;;;;;;4993714;28;20033;-74
2022/06/10 02:26:47;;;;;;;14.73;10.88;;;;;;;;;;4998821;28;20387;-73
2022/06/10 02:29:17;;;;;;;13.25;11.85;;;;;;;;;;5007204;28;20035;-71
2022/06/10 02:31:48;;;;;;;12.52;11.38;;;;;;;;;;4994054;28;20729;-73
2022/06/10 02:34:14;;;;;;;16.00;12.15;;;;;;;;;;4994437;28;20026;-72
2022/06/10 02:36:51;;;;;;;15.57;12.60;;;;;;;;;;4993847;28;20629;-74
2022/06/10 02:39:35;;;;;;;14.27;11.82;;;;;;;;;;4995721;28;20041;-74
2022/06/10 02:42:10;;;;;;;15.93;11.15;;;;;;;;;;4994044;28;20026;-74
2022/06/10 02:44:49;;;;;;;13.30;11.65;;;;;;;;;;4991232;28;20506;-74
2022/06/10 02:47:33;;;;;;;14.30;11.25;;;;;;;;;;4993362;28;20051;-74
2022/06/10 02:50:00;;;;;;;14.57;11.48;;;;;;;;;;4994837;28;20502;-74
2022/06/10 02:52:28;;;;;;;14.20;10.75;;;;;;;;;;4995804;28;20030;-71
2022/06/10 02:54:54;;;;;;;13.35;10.85;;;;;;;;;;4993101;28;20026;-74
2022/06/10 02:57:22;;;;;;;12.35;11.05;;;;;;;;;;4994575;28;20031;-74
2022/06/10 03:02:55;;;;;;;12.35;11.05;;;;;;;;;;4994461;28;20096;-74
2022/06/10 03:05:28;;;;;;;12.00;10.75;;;;;;;;;;4998660;28;20441;-74
2022/06/10 03:08:17;;;;;;;16.38;12.68;;;;;;;;;;4998033;28;20045;-71
2022/06/10 03:11:01;;;;;;;18.58;13.10;;;;;;;;;;4975542;28;20030;-73
2022/06/10 03:13:34;;;;;;;17.90;13.38;;;;;;;;;;5006192;28;20038;-72
2022/06/10 03:16:04;;;;;;;18.65;13.43;;;;;;;;;;5013578;28;20076;-73
2022/06/10 03:18:36;;;;;;;17.48;14.02;;;;;;;;;;5020078;28;20037;-73
2022/06/10 03:21:20;;;;;;;18.30;15.27;;;;;;;;;;5015320;28;20033;-74
2022/06/10 03:23:58;;;;;;;20.85;14.60;;;;;;;;;;5010219;28;20129;-72
2022/06/10 03:26:40;;;;;;;15.77;13.75;;;;;;;;;;5021743;28;20029;-74
2022/06/10 03:29:19;;;;;;;16.33;13.07;;;;;;;;;;5012702;28;20092;-74
2022/06/10 03:31:47;;;;;;;16.90;13.77;;;;;;;;;;5013670;28;20049;-73
2022/06/10 03:34:18;;;;;;;15.85;13.27;;;;;;;;;;5011203;28;20033;-72
2022/06/10 03:36:48;;;;;;;13.88;12.57;;;;;;;;;;5015083;28;20426;-74
2022/06/10 03:39:15;;;;;;;15.88;12.95;;;;;;;;;;5000831;28;20478;-72
2022/06/10 03:41:43;;;;;;;14.07;12.52;;;;;;;;;;5012102;28;20037;-74
2022/06/10 03:44:14;;;;;;;13.60;12.20;;;;;;;;;;5016489;28;20045;-74
2022/06/10 03:46:41;;;;;;;15.43;12.63;;;;;;;;;;5012332;28;20044;-71
2022/06/10 03:49:10;;;;;;;14.60;12.95;;;;;;;;;;5012764;28;20038;-74
2022/06/10 03:51:36;;;;;;;14.27;11.98;;;;;;;;;;5012214;28;20072;-74
2022/06/10 03:54:17;;;;;;;15.80;11.85;;;;;;;;;;5014624;28;20057;-74
2022/06/10 03:56:43;;;;;;;15.95;11.68;;;;;;;;;;5012571;28;20092;-74
2022/06/10 03:59:09;;;;;;;13.82;11.00;;;;;;;;;;5013916;28;20079;-70
2022/06/10 04:01:35;;;;;;;15.30;12.07;;;;;;;;;;5009789;28;20079;-72
2022/06/10 04:04:10;;;;;;;13.60;11.20;;;;;;;;;;5012042;28;20072;-75
2022/06/10 04:07:04;;;;;;;17.63;12.05;;;;;;;;;;5017459;28;20033;-72
2022/06/10 04:09:33;;;;;;;14.85;11.68;;;;;;;;;;5009342;28;20083;-73
2022/06/10 04:11:59;;;;;;;13.65;11.02;;;;;;;;;;5014457;28;20388;-73
2022/06/10 04:14:27;;;;;;;14.60;10.68;;;;;;;;;;5012655;28;20515;-72
2022/06/10 04:16:53;;;;;;;14.38;10.55;;;;;;;;;;5011234;28;20036;-73
2022/06/10 04:22:06;;;;;;;14.32;11.63;;;;;;;;;;4950610;28;20505;-74
2022/06/10 04:24:34;;;;;;;12.77;10.75;;;;;;;;;;4952807;29;20031;-76
2022/06/10 04:27:02;;;;;;;16.00;10.43;;;;;;;;;;4951794;28;20049;-73
2022/06/10 04:29:28;;;;;;;14.45;10.82;;;;;;;;;;4952967;28;20043;-72
2022/06/10 04:31:54;;;;;;;14.65;11.02;;;;;;;;;;4950309;28;20118;-75
2022/06/10 04:34:20;;;;;;;13.40;10.77;;;;;;;;;;4950406;28;20031;-75
2022/06/10 04:36:46;;;;;;;16.10;11.18;;;;;;;;;;4951891;28;20531;-75
2022/06/10 04:39:22;;;;;;;12.32;11.02;;;;;;;;;;4951445;29;20043;-76
2022/06/10 04:41:49;;;;;;;12.38;10.90;;;;;;;;;;4939727;28;20027;-71
2022/06/10 04:44:15;;;;;;;13.73;11.75;;;;;;;;;;4951613;28;20054;-76
2022/06/10 04:46:42;;;;;;;13.23;11.70;;;;;;;;;;4951809;29;20065;-75
2022/06/10 04:49:10;;;;;;;14.75;11.93;;;;;;;;;;4950545;28;20047;-75
2022/06/10 04:51:37;;;;;;;13.00;11.05;;;;;;;;;;4952130;28;20030;-72
2022/06/10 04:54:03;;;;;;;18.17;12.57;;;;;;;;;;4951119;28;20047;-76
2022/06/10 04:56:30;;;;;;;17.23;13.07;;;;;;;;;;4954804;28;20031;-73
2022/06/10 04:58:59;;;;;;;15.85;11.68;;;;;;;;;;4977883;28;20041;-74
2022/06/10 05:01:25;;;;;;;20.25;12.98;;;;;;;;;;5015264;28;20049;-74
2022/06/10 05:03:51;;;;;;;18.98;11.85;;;;;;;;;;5013911;28;20018;-75
2022/06/10 05:06:17;;;;;;;15.95;12.45;;;;;;;;;;5015618;28;20444;-76
2022/06/10 05:08:43;;;;;;;15.55;11.88;;;;;;;;;;5010839;28;20057;-71
2022/06/10 05:11:09;;;;;;;24.20;11.27;;;;;;;;;;5014683;28;20041;-71
2022/06/10 05:13:41;;;;;;;25.70;11.70;;;;;;;;;;5013606;28;20058;-76
2022/06/10 05:16:13;;;;;;;18.05;12.38;;;;;;;;;;4996675;28;20089;-78
2022/06/10 05:18:39;;;;;;;15.18;11.95;;;;;;;;;;5014721;28;20033;-77
2022/06/10 05:21:05;;;;;;;14.32;11.73;;;;;;;;;;5014012;28;20034;-74
2022/06/10 05:23:31;;;;;;;14.23;11.70;;;;;;;;;;5014206;28;20053;-73
2022/06/10 05:25:57;;;;;;;15.20;12.98;;;;;;;;;;5021269;28;20375;-74
2022/06/10 05:28:24;;;;;;;15.23;12.48;;;;;;;;;;5014850;28;20038;-73
2022/06/10 05:30:50;;;;;;;16.75;12.18;;;;;;;;;;5006937;28;20061;-83
2022/06/10 05:33:17;;;;;;;13.32;11.93;;;;;;;;;;4995911;28;20038;-74
2022/06/10 05:35:44;;;;;;;13.55;12.18;;;;;;;;;;4994968;28;20056;-76
2022/06/10 05:38:10;;;;;;;15.68;12.65;;;;;;;;;;5015443;28;20038;-76
2022/06/10 05:40:37;;;;;;;14.40;12.93;;;;;;;;;;4994516;28;20034;-80
2022/06/10 05:43:04;;;;;;;17.08;12.45;;;;;;;;;;5014260;28;20040;-87
2022/06/10 05:45:31;;;;;;;19.98;12.68;;;;;;;;;;4995794;28;20037;-72
2022/06/10 05:48:17;;;;;;;16.40;12.82;;;;;;;;;;5012110;28;20464;-72
2022/06/10 05:50:44;;;;;;;19.55;14.20;;;;;;;;;;4908053;29;20043;-73
2022/06/10 05:53:12;;;;;;;16.65;12.75;;;;;;;;;;4919277;29;20124;-86
2022/06/10 05:55:38;;;;;;;17.02;12.98;;;;;;;;;;4902726;29;20036;-79
2022/06/10 05:58:04;;;;;;;18.08;12.50;;;;;;;;;;4916114;29;20032;-82
2022/06/10 06:00:32;;;;;;;16.52;12.57;;;;;;;;;;4917075;29;20375;-85
2022/06/10 06:02:59;;;;;;;15.38;11.95;;;;;;;;;;4916109;29;20059;-82
2022/06/10 06:05:25;;;;;;;21.52;13.52;;;;;;;;;;4915092;29;20044;-82
2022/06/10 06:07:52;;;;;;;15.27;12.32;;;;;;;;;;4915869;29;20131;-83
2022/06/10 06:10:20;;;;;;;15.63;12.98;;;;;;;;;;4916642;29;20482;-82
2022/06/10 06:12:46;;;;;;;14.35;12.45;;;;;;;;;;4915629;29;20060;-87
2022/06/10 06:15:13;;;;;;;16.05;12.65;;;;;;;;;;4915401;29;20601;-87
2022/06/10 06:17:39;;;;;;;13.77;12.05;;;;;;;;;;4916141;29;20102;-78
2022/06/10 06:20:06;;;;;;;14.63;13.00;;;;;;;;;;4916717;29;20032;-79
2022/06/10 06:22:35;;;;;;;14.52;13.02;;;;;;;;;;4946011;28;20039;-77
2022/06/10 06:25:01;;;;;;;18.33;13.23;;;;;;;;;;4954915;28;20027;-86
2022/06/10 06:27:27;;;;;;;20.45;13.10;;;;;;;;;;4983672;28;20043;-81
2022/06/10 06:29:53;;;;;;;13.95;11.88;;;;;;;;;;4996013;28;20026;-83
2022/06/10 06:32:19;;;;;;;17.42;12.43;;;;;;;;;;5011288;28;20036;-85
2022/06/10 06:34:45;;;;;;;13.98;12.02;;;;;;;;;;5013873;28;20030;-87
2022/06/10 06:37:14;;;;;;;14.40;12.60;;;;;;;;;;5014426;28;20041;-89
2022/06/10 06:39:40;;;;;;;19.77;13.45;;;;;;;;;;4993597;28;20503;-78
2022/06/10 06:42:07;;;;;;;16.58;12.60;;;;;;;;;;5012452;28;20029;-74
2022/06/10 06:44:33;;;;;;;19.48;12.35;;;;;;;;;;5012086;28;20344;-79
2022/06/10 06:46:59;;;;;;;23.10;12.32;;;;;;;;;;5013255;28;20014;-74
2022/06/10 06:49:26;;;;;;;17.40;12.18;;;;;;;;;;5008474;28;20034;-80
2022/06/10 06:51:53;;;;;;;15.05;11.70;;;;;;;;;;4995688;28;20053;-81
2022/06/10 06:54:19;;;;;;;18.52;12.35;;;;;;;;;;4994602;28;20108;-82
2022/06/10 06:56:46;;;;;;;15.32;11.82;;;;;;;;;;4995776;28;20022;-84
2022/06/10 06:59:12;;;;;;;13.27;11.85;;;;;;;;;;4992769;28;20113;-71
2022/06/10 07:01:38;;;;;;;14.52;10.95;;;;;;;;;;5011089;28;20030;-72
2022/06/10 07:04:05;;;;;;;14.00;11.93;;;;;;;;;;5012229;28;20029;-70
2022/06/10 07:06:35;;;;;;;13.40;11.43;;;;;;;;;;5012277;28;20127;-72
2022/06/10 07:09:02;;;;;;;12.98;11.18;;;;;;;;;;5012446;28;20041;-71
2022/06/10 07:11:28;;;;;;;16.52;11.63;;;;;;;;;;5012413;28;20024;-71
2022/06/10 07:13:54;;;;;;;14.77;10.95;;;;;;;;;;5013349;28;20053;-71
2022/06/10 07:16:20;;;;;;;13.40;12.00;;;;;;;;;;5010703;28;20040;-72
2022/06/10 07:18:46;;;;;;;12.85;11.48;;;;;;;;;;5013472;28;20535;-71
2022/06/10 07:21:14;;;;;;;13.18;10.93;;;;;;;;;;5012640;28;20022;-72
2022/06/10 07:23:40;;;;;;;12.23;10.65;;;;;;;;;;5012576;28;20060;-72
2022/06/10 07:26:06;;;;;;;15.45;10.00;;;;;;;;;;5010099;28;20053;-70
2022/06/10 07:28:33;;;;;;;13.27;10.25;;;;;;;;;;5011922;28;20036;-72
2022/06/10 07:30:59;;;;;;;12.52;9.38;;;;;;;;;;4992143;28;20365;-77
2022/06/10 07:33:25;;;;;;;11.85;8.85;;;;;;;;;;4994765;28;20487;-76
2022/06/10 07:35:51;;;;;;;12.23;9.25;;;;;;;;;;4992729;28;20029;-79
2022/06/10 07:38:18;;;;;;;10.50;9.48;;;;;;;;;;5010701;28;20026;-79
2022/06/10 07:43:30;;;;;;;11.13;8.52;;;;;;;;;;5004322;28;20049;-79
2022/06/10 07:45:56;;;;;;;14.15;9.00;;;;;;;;;;4994570;28;20479;-83
2022/06/10 07:48:22;;;;;;;15.93;8.60;;;;;;;;;;4994959;28;20121;-83
2022/06/10 07:50:49;;;;;;;15.60;8.30;;;;;;;;;;5012452;28;20488;-75
2022/06/10 07:53:15;;;;;;;12.18;8.95;;;;;;;;;;5012064;28;20096;-75
2022/06/10 07:55:42;;;;;;;14.57;9.10;;;;;;;;;;5011520;28;20026;-73
2022/06/10 07:58:11;;;;;;;9.52;8.18;;;;;;;;;;5011482;28;20360;-76
2022/06/10 08:00:38;;;;;;;15.00;8.13;;;;;;;;;;4992508;28;20034;-77
2022/06/10 08:03:05;;;;;;;13.50;9.40;;;;;;;;;;5008701;28;20463;-79
2022/06/10 08:05:31;;;;;;;13.52;8.57;;;;;;;;;;5009257;28;20022;-78
2022/06/10 08:07:57;;;;;;;12.95;8.55;;;;;;;;;;4992821;28;20759;-72
2022/06/10 08:10:26;;;;;;;8.98;7.93;;;;;;;;;;5008585;28;20774;-74
2022/06/10 08:12:54;;;;;;;15.48;7.82;;;;;;;;;;5009008;28;20037;-75
2022/06/10 08:15:21;;;;;;;11.07;7.70;;;;;;;;;;5008458;28;20067;-73
2022/06/10 08:17:47;;;;;;;11.07;8.40;;;;;;;;;;5009428;28;20105;-77
2022/06/10 08:20:18;;;;;;;12.60;8.68;;;;;;;;;;5009761;28;20026;-72
2022/06/10 08:22:44;;;;;;;10.65;7.75;;;;;;;;;;4999737;28;20482;-72
2022/06/10 08:25:12;;;;;;;11.13;8.35;;;;;;;;;;5000598;28;20049;-75
2022/06/10 08:27:38;;;;;;;9.25;8.27;;;;;;;;;;5006685;28;20034;-74
2022/06/10 08:30:06;;;;;;;10.63;7.93;;;;;;;;;;5008313;28;20051;-78
2022/06/10 08:32:32;;;;;;;11.88;8.52;;;;;;;;;;5007097;28;20040;-78
2022/06/10 08:35:00;;;;;;;16.10;7.55;;;;;;;;;;5009555;28;20101;-82
2022/06/10 08:37:26;;;;;;;20.92;8.68;;;;;;;;;;4992200;28;20483;-84
2022/06/10 08:39:52;;;;;;;18.10;12.88;;;;;;;;;;4992314;28;20409;-90
2022/06/10 08:42:18;;;;;;;26.52;17.38;;;;;;;;;;4994530;28;20080;-74
2022/06/10 08:44:52;;;;;;;14.77;9.85;;;;;;;;;;5006816;28;20026;-75
2022/06/10 08:47:32;;;;;;;9.55;8.32;;;;;;;;;;5005401;28;20503;-75
2022/06/10 08:50:27;;;;;;;10.52;7.43;;;;;;;;;;5008578;28;20053;-74
2022/06/10 08:52:59;;;;;;;10.43;8.30;;;;;;;;;;4949852;29;20051;-74
2022/06/10 08:55:34;;;;;;;10.73;7.25;;;;;;;;;;4947256;29;20043;-75
2022/06/10 08:58:03;;;;;;;10.43;7.60;;;;;;;;;;4951470;28;20102;-73
2022/06/10 09:00:30;;;;;;;12.35;7.20;;;;;;;;;;4950558;28;20505;-75
2022/06/10 09:03:00;;;;;;;9.95;6.95;;;;;;;;;;4956363;28;20086;-75
2022/06/10 09:05:35;;;;;;;8.57;5.15;;;;;;;;;;4954041;28;20143;-74
2022/06/10 09:08:06;;;;;;;9.57;5.43;;;;;;;;;;4954937;28;20071;-73
2022/06/10 09:10:42;;;;;;;12.00;6.05;;;;;;;;;;4951350;29;20035;-75
2022/06/10 09:13:21;;;;;;;25.90;7.32;;;;;;;;;;4948907;28;20048;-76
2022/06/10 09:16:08;;;;;;;10.88;5.63;;;;;;;;;;4953678;28;20058;-76
2022/06/10 09:18:36;;;;;;;7.55;4.78;;;;;;;;;;4946288;28;20062;-75
2022/06/10 09:21:10;;;;;;;10.43;5.45;;;;;;;;;;4942407;28;20031;-76
2022/06/10 09:23:41;;;;;;;10.65;4.68;;;;;;;;;;4951755;29;20078;-76
2022/06/10 09:26:13;;;;;;;9.60;4.70;;;;;;;;;;4951313;29;20032;-75
2022/06/10 09:28:42;;;;;;;7.30;4.45;;;;;;;;;;4966091;28;20049;-75
2022/06/10 09:31:13;;;;;;;8.32;4.72;;;;;;;;;;5019084;28;20026;-75
2022/06/10 09:33:39;;;;;;;8.52;5.22;;;;;;;;;;5014329;28;20168;-75
2022/06/10 09:36:08;;;;;;;7.97;4.85;;;;;;;;;;5012248;28;20108;-77
2022/06/10 09:38:46;;;;;;;6.55;4.50;;;;;;;;;;5012015;28;20069;-76
2022/06/10 09:41:12;;;;;;;10.43;4.93;;;;;;;;;;5010143;28;20030;-74
2022/06/10 09:43:55;;;;;;;7.63;4.88;;;;;;;;;;5019635;28;20108;-75
2022/06/10 09:46:34;;;;;;;9.00;4.43;;;;;;;;;;5028888;28;20099;-75
2022/06/10 09:49:06;;;;;;;10.73;5.60;;;;;;;;;;5015749;28;20037;-75
2022/06/10 09:51:48;;;;;;;11.13;5.28;;;;;;;;;;5014883;28;20053;-74
2022/06/10 09:54:17;;;;;;;10.63;4.60;;;;;;;;;;5018066;28;20057;-75
2022/06/10 09:57:01;;;;;;;10.82;4.82;;;;;;;;;;5017245;28;20025;-76
2022/06/10 09:59:27;;;;;;;8.23;4.13;;;;;;;;;;5015393;28;20022;-76
2022/06/10 10:02:12;;;;;;;10.32;4.72;;;;;;;;;;5014888;28;20061;-76
2022/06/10 10:04:38;;;;;;;9.30;4.80;;;;;;;;;;5015762;28;20018;-76
2022/06/10 10:07:07;;;;;;;7.57;5.32;;;;;;;;;;5016144;28;20026;-77
2022/06/10 10:09:44;;;;;;;10.38;4.70;;;;;;;;;;5016125;28;20041;-76
2022/06/10 10:12:14;;;;;;;11.27;6.85;;;;;;;;;;5014445;28;20061;-75
2022/06/10 10:14:40;;;;;;;10.70;7.47;;;;;;;;;;5015070;28;20100;-75
2022/06/10 10:17:22;;;;;;;6.43;4.47;;;;;;;;;;5026338;28;20503;-76
2022/06/10 10:19:59;;;;;;;12.15;4.95;;;;;;;;;;5018098;28;20026;-76
2022/06/10 10:22:29;;;;;;;6.75;4.60;;;;;;;;;;5014844;28;20030;-76
2022/06/10 10:24:55;;;;;;;7.93;4.40;;;;;;;;;;5015053;28;20380;-76
2022/06/10 10:27:21;;;;;;;7.25;5.40;;;;;;;;;;5022155;28;20025;-75
2022/06/10 10:29:51;;;;;;;8.43;4.22;;;;;;;;;;5014596;28;20034;-75
2022/06/10 10:32:19;;;;;;;10.90;4.32;;;;;;;;;;5017968;28;20029;-76
2022/06/10 10:34:47;;;;;;;9.05;3.80;;;;;;;;;;5014524;28;20026;-75
2022/06/10 10:37:23;;;;;;;6.68;3.83;;;;;;;;;;5018354;28;20104;-76
2022/06/10 10:39:54;;;;;;;5.57;4.05;;;;;;;;;;5014723;28;20048;-77
2022/06/10 10:42:22;;;;;;;6.50;3.67;;;;;;;;;;5017395;28;20551;-75
2022/06/10 10:45:11;;;;;;;9.88;4.32;;;;;;;;;;5014168;28;20480;-76
2022/06/10 10:47:38;;;;;;;9.70;4.22;;;;;;;;;;5016692;28;20029;-76
2022/06/10 10:50:04;;;;;;;6.35;4.43;;;;;;;;;;5013195;28;20122;-76
2022/06/10 10:52:38;;;;;;;8.32;4.72;;;;;;;;;;5024245;28;20116;-77
2022/06/10 10:55:20;;;;;;;20.35;4.88;;;;;;;;;;5015291;28;20148;-76
2022/06/10 10:58:01;;;;;;;20.07;4.83;;;;;;;;;;5014107;28;20455;-75
2022/06/10 11:00:34;;;;;;;9.30;4.07;;;;;;;;;;5020049;28;20633;-75
2022/06/10 11:03:01;;;;;;;6.88;4.20;;;;;;;;;;5028389;28;20048;-76
2022/06/10 11:05:47;;;;;;;9.88;4.20;;;;;;;;;;5018436;28;20443;-74
2022/06/10 11:08:23;;;;;;;10.70;4.40;;;;;;;;;;5014084;28;20483;-75
2022/06/10 11:10:55;;;;;;;9.25;4.50;;;;;;;;;;5026389;28;20030;-75
2022/06/10 11:13:31;;;;;;;11.63;4.30;;;;;;;;;;5019314;28;20056;-76
2022/06/10 11:16:17;;;;;;;8.13;3.92;;;;;;;;;;5018200;28;20026;-74
2022/06/10 11:18:46;;;;;;;8.02;4.38;;;;;;;;;;5008478;28;20022;-75
2022/06/10 11:21:12;;;;;;;6.75;3.83;;;;;;;;;;5016300;28;20037;-74
2022/06/10 11:23:49;;;;;;;8.95;3.95;;;;;;;;;;5013891;28;20032;-75
2022/06/10 11:26:21;;;;;;;6.93;3.83;;;;;;;;;;5011547;28;20034;-77
2022/06/10 11:28:48;;;;;;;9.57;3.60;;;;;;;;;;5025979;28;20026;-74
2022/06/10 11:31:21;;;;;;;7.95;4.20;;;;;;;;;;5023698;28;20378;-75
2022/06/10 11:33:49;;;;;;;6.80;3.95;;;;;;;;;;5015372;28;20018;-75
2022/06/10 11:36:22;;;;;;;5.80;3.60;;;;;;;;;;5013615;28;20022;-74
2022/06/10 11:38:53;;;;;;;8.02;3.78;;;;;;;;;;5013379;28;20028;-75
2022/06/10 11:41:24;;;;;;;6.18;3.40;;;;;;;;;;5015315;28;20030;-74
2022/06/10 11:44:20;;;;;;;5.47;3.50;;;;;;;;;;5012043;28;20488;-74
2022/06/10 11:47:02;;;;;;;7.43;3.83;;;;;;;;;;5013403;28;20034;-74
2022/06/10 11:49:37;;;;;;;6.93;3.35;;;;;;;;;;4998965;28;20396;-74
2022/06/10 11:52:22;;;;;;;6.20;3.70;;;;;;;;;;5000100;28;20076;-74
2022/06/10 11:55:09;;;;;;;7.00;3.75;;;;;;;;;;5002102;28;20025;-75
2022/06/10 12:00:32;;;;;;;6.25;3.00;;;;;;;;;;5012993;28;20040;-75
2022/06/10 12:03:14;;;;;;;6.00;3.15;;;;;;;;;;5014022;28;20030;-75
2022/06/10 12:05:48;;;;;;;5.97;2.88;;;;;;;;;;5012853;28;20026;-76
2022/06/10 12:08:30;;;;;;;9.95;2.97;;;;;;;;;;5006990;28;20053;-75
2022/06/10 12:11:14;;;;;;;5.40;2.53;;;;;;;;;;5011636;28;20041;-75
2022/06/10 12:13:49;;;;;;;7.43;2.90;;;;;;;;;;5012695;28;20108;-75
2022/06/10 12:16:15;;;;;;;5.25;2.60;;;;;;;;;;5013022;28;20022;-79
2022/06/10 12:18:44;;;;;;;4.63;2.45;;;;;;;;;;5012625;28;20026;-73
2022/06/10 12:21:15;;;;;;;14.13;2.80;;;;;;;;;;5014484;28;20045;-74
2022/06/10 12:23:47;;;;;;;12.30;2.72;;;;;;;;;;5013999;28;20034;-76
2022/06/10 12:26:13;;;;;;;10.20;2.65;;;;;;;;;;5012649;28;20105;-75
2022/06/10 12:28:42;;;;;;;8.88;2.67;;;;;;;;;;5015211;28;20109;-75
2022/06/10 12:31:18;;;;;;;6.85;2.40;;;;;;;;;;5012339;28;20057;-75
2022/06/10 12:34:03;;;;;;;9.25;2.70;;;;;;;;;;5015933;28;20053;-75
2022/06/10 12:36:39;;;;;;;10.45;2.80;;;;;;;;;;5016258;28;20061;-74
2022/06/10 12:39:06;;;;;;;8.63;3.00;;;;;;;;;;5011476;28;20026;-75
2022/06/10 12:41:40;;;;;;;5.03;2.80;;;;;;;;;;5010944;28;20033;-74
2022/06/10 12:44:11;;;;;;;12.95;3.05;;;;;;;;;;5013409;28;20033;-73
2022/06/10 12:46:42;;;;;;;17.77;3.08;;;;;;;;;;5011821;28;20034;-75
2022/06/10 12:49:18;;;;;;;12.65;3.03;;;;;;;;;;4992393;28;20042;-77
2022/06/10 12:51:49;;;;;;;4.53;2.50;;;;;;;;;;5014127;28;20045;-74
2022/06/10 12:54:24;;;;;;;11.60;2.67;;;;;;;;;;5013734;28;20042;-75
2022/06/10 12:57:09;;;;;;;11.77;3.60;;;;;;;;;;5011393;28;20506;-76
2022/06/10 12:59:35;;;;;;;15.63;3.28;;;;;;;;;;5014476;28;20053;-75
2022/06/10 13:02:02;;;;;;;8.60;2.90;;;;;;;;;;5019158;28;20026;-74
2022/06/10 13:04:28;;;;;;;4.38;2.58;;;;;;;;;;5015810;28;20444;-76
2022/06/10 13:07:00;;;;;;;6.43;2.50;;;;;;;;;;5009895;28;20057;-75
2022/06/10 13:09:31;;;;;;;7.40;2.65;;;;;;;;;;5001837;28;20052;-81
2022/06/10 13:12:00;;;;;;;2.78;2.20;;;;;;;;;;5007788;28;20476;-80
2022/06/10 13:14:27;;;;;;;4.25;2.42;;;;;;;;;;4992711;28;20488;-73
2022/06/10 13:16:59;;;;;;;12.20;3.08;;;;;;;;;;4988730;28;20045;-77
2022/06/10 13:19:34;;;;;;;7.93;2.85;;;;;;;;;;4997412;28;20030;-80
2022/06/10 13:22:20;;;;;;;14.07;2.60;;;;;;;;;;5021196;28;20395;-82
2022/06/10 13:24:54;;;;;;;3.65;2.28;;;;;;;;;;5015222;28;20022;-75
2022/06/10 13:27:24;;;;;;;13.20;2.85;;;;;;;;;;5012872;28;20032;-74
2022/06/10 13:29:52;;;;;;;5.57;2.53;;;;;;;;;;5013797;28;20042;-75
2022/06/10 13:32:18;;;;;;;6.50;2.90;;;;;;;;;;5013273;28;20018;-82
2022/06/10 13:34:53;;;;;;;3.63;2.50;;;;;;;;;;4996599;28;20189;-74
2022/06/10 13:37:21;;;;;;;15.35;3.00;;;;;;;;;;4992675;28;20034;-81
2022/06/10 13:39:48;;;;;;;4.63;2.80;;;;;;;;;;5014982;28;20025;-78
2022/06/10 13:42:20;;;;;;;6.00;2.40;;;;;;;;;;5014189;28;20032;-80
2022/06/10 13:44:49;;;;;;;6.93;2.35;;;;;;;;;;5005907;28;20040;-81
2022/06/10 13:47:18;;;;;;;5.97;2.90;;;;;;;;;;5013352;28;20363;-81
2022/06/10 13:49:54;;;;;;;5.28;2.75;;;;;;;;;;4996476;28;20061;-85
2022/06/10 13:52:24;;;;;;;9.00;2.60;;;;;;;;;;5013374;28;20018;-90
2022/06/10 13:54:53;;;;;;;6.78;3.10;;;;;;;;;;4997539;28;20033;-90
2022/06/10 13:57:23;;;;;;;18.45;3.13;;;;;;;;;;4996198;28;20026;-89
2022/06/10 14:00:06;;;;;;;5.35;2.80;;;;;;;;;;4995521;28;20463;-82
2022/06/10 14:02:33;;;;;;;4.25;2.60;;;;;;;;;;5014052;28;20022;-77
2022/06/10 14:05:04;;;;;;;4.55;2.53;;;;;;;;;;5014181;28;20026;-75
2022/06/10 14:07:36;;;;;;;6.40;2.55;;;;;;;;;;5014040;28;20089;-84
2022/06/10 14:10:02;;;;;;;6.75;2.97;;;;;;;;;;5012260;28;20514;-75
2022/06/10 14:12:29;;;;;;;6.50;3.00;;;;;;;;;;5014136;28;20057;-79
2022/06/10 14:15:06;;;;;;;8.32;3.33;;;;;;;;;;5014963;28;20059;-76
2022/06/10 14:17:34;;;;;;;3.83;2.80;;;;;;;;;;5012983;28;20057;-80
2022/06/10 14:20:04;;;;;;;9.63;3.40;;;;;;;;;;5012671;28;20025;-77
2022/06/10 14:22:32;;;;;;;9.02;2.63;;;;;;;;;;5014446;28;20157;-79
2022/06/10 14:25:14;;;;;;;3.13;2.38;;;;;;;;;;4996834;28;20040;-75
2022/06/10 14:27:51;;;;;;;12.02;2.85;;;;;;;;;;5009365;28;20408;-80
2022/06/10 14:30:20;;;;;;;6.55;2.72;;;;;;;;;;5007011;28;20089;-78
2022/06/10 14:33:00;;;;;;;7.03;2.65;;;;;;;;;;5000359;28;20033;-76
2022/06/10 14:35:30;;;;;;;8.35;3.22;;;;;;;;;;5000675;28;20153;-82
2022/06/10 14:38:05;;;;;;;5.35;2.92;;;;;;;;;;5006638;28;20029;-80
2022/06/10 14:40:31;;;;;;;7.28;3.40;;;;;;;;;;5005714;28;20057;-80
2022/06/10 14:43:03;;;;;;;5.88;3.28;;;;;;;;;;5005401;28;20038;-77
2022/06/10 14:45:32;;;;;;;5.78;3.35;;;;;;;;;;5011030;28;20034;-81
2022/06/10 14:48:04;;;;;;;14.07;4.13;;;;;;;;;;5007165;28;20034;-78
2022/06/10 14:50:30;;;;;;;8.43;3.05;;;;;;;;;;5000683;28;20556;-78
2022/06/10 14:52:56;;;;;;;5.80;2.97;;;;;;;;;;5001646;28;20029;-77
2022/06/10 14:55:24;;;;;;;8.90;3.10;;;;;;;;;;5008926;28;20030;-78
2022/06/10 14:57:54;;;;;;;4.78;2.97;;;;;;;;;;5012998;28;20436;-79
2022/06/10 15:00:25;;;;;;;4.82;2.88;;;;;;;;;;5013893;28;20030;-80
2022/06/10 15:02:52;;;;;;;6.30;2.60;;;;;;;;;;5012042;28;20026;-77
2022/06/10 15:08:03;;;;;;;4.05;2.60;;;;;;;;;;5013487;28;20037;-78
2022/06/10 15:10:30;;;;;;;5.55;3.00;;;;;;;;;;5013906;28;20072;-72